sensor_id;sensor_type;location;lat;lon;timestamp;P1;durP1;ratioP1;P2;durP2;ratioP2
8580;SDS011;4328;48.622;9.230;2023-02-01T00:00:48;3.10;;;2.80;;
8580;SDS011;4328;48.622;9.230;2023-02-01T00:03:15;3.03;;;2.67;;
8580;SDS011;4328;48.622;9.230;2023-02-01T00:05:44;3.00;;;2.70;;
8580;SDS011;4328;48.622;9.230;2023-02-01T00:08:10;4.23;;;2.70;;
8580;SDS011;4328;48.622;9.230;2023-02-01T00:10:37;3.53;;;2.73;;
8580;SDS011;4328;48.622;9.230;2023-02-01T00:13:04;3.07;;;2.77;;
8580;SDS011;4328;48.622;9.230;2023-02-01T00:15:31;3.00;;;2.80;;
8580;SDS011;4328;48.622;9.230;2023-02-01T00:17:58;3.23;;;2.90;;
8580;SDS011;4328;48.622;9.230;2023-02-01T00:20:25;4.23;;;2.93;;
8580;SDS011;4328;48.622;9.230;2023-02-01T00:22:51;2.80;;;2.60;;
8580;SDS011;4328;48.622;9.230;2023-02-01T00:25:17;3.33;;;2.63;;
8580;SDS011;4328;48.622;9.230;2023-02-01T00:27:47;2.53;;;2.33;;
8580;SDS011;4328;48.622;9.230;2023-02-01T00:30:15;2.93;;;2.73;;
8580;SDS011;4328;48.622;9.230;2023-02-01T00:32:42;2.60;;;2.40;;
8580;SDS011;4328;48.622;9.230;2023-02-01T00:35:08;3.70;;;2.93;;
8580;SDS011;4328;48.622;9.230;2023-02-01T00:37:35;2.47;;;2.20;;
8580;SDS011;4328;48.622;9.230;2023-02-01T00:40:01;2.70;;;2.50;;
8580;SDS011;4328;48.622;9.230;2023-02-01T00:42:28;3.43;;;2.73;;
8580;SDS011;4328;48.622;9.230;2023-02-01T00:44:54;3.73;;;2.43;;
8580;SDS011;4328;48.622;9.230;2023-02-01T00:47:22;2.83;;;2.60;;
8580;SDS011;4328;48.622;9.230;2023-02-01T00:49:48;2.80;;;2.50;;
8580;SDS011;4328;48.622;9.230;2023-02-01T00:52:15;2.53;;;2.33;;
8580;SDS011;4328;48.622;9.230;2023-02-01T00:54:41;2.40;;;2.20;;
8580;SDS011;4328;48.622;9.230;2023-02-01T00:57:08;2.97;;;2.20;;
8580;SDS011;4328;48.622;9.230;2023-02-01T00:59:34;2.50;;;2.30;;
8580;SDS011;4328;48.622;9.230;2023-02-01T01:02:00;3.33;;;2.73;;
8580;SDS011;4328;48.622;9.230;2023-02-01T01:04:28;2.73;;;2.53;;
8580;SDS011;4328;48.622;9.230;2023-02-01T01:06:54;3.13;;;2.53;;
8580;SDS011;4328;48.622;9.230;2023-02-01T01:09:21;2.67;;;2.47;;
8580;SDS011;4328;48.622;9.230;2023-02-01T01:11:47;2.83;;;2.00;;
8580;SDS011;4328;48.622;9.230;2023-02-01T01:14:16;2.40;;;2.20;;
8580;SDS011;4328;48.622;9.230;2023-02-01T01:16:42;2.23;;;2.13;;
8580;SDS011;4328;48.622;9.230;2023-02-01T01:19:08;2.33;;;2.13;;
8580;SDS011;4328;48.622;9.230;2023-02-01T01:21:36;2.83;;;2.20;;
8580;SDS011;4328;48.622;9.230;2023-02-01T01:24:03;2.47;;;2.13;;
8580;SDS011;4328;48.622;9.230;2023-02-01T01:26:29;2.40;;;2.20;;
8580;SDS011;4328;48.622;9.230;2023-02-01T01:28:56;2.43;;;2.20;;
8580;SDS011;4328;48.622;9.230;2023-02-01T01:31:23;2.40;;;2.20;;
8580;SDS011;4328;48.622;9.230;2023-02-01T01:33:50;2.27;;;2.10;;
8580;SDS011;4328;48.622;9.230;2023-02-01T01:36:17;2.30;;;2.10;;
8580;SDS011;4328;48.622;9.230;2023-02-01T01:38:45;2.27;;;2.03;;
8580;SDS011;4328;48.622;9.230;2023-02-01T01:41:12;2.23;;;2.10;;
8580;SDS011;4328;48.622;9.230;2023-02-01T01:43:49;1.77;;;1.67;;
8580;SDS011;4328;48.622;9.230;2023-02-01T01:46:16;1.80;;;1.70;;
8580;SDS011;4328;48.622;9.230;2023-02-01T01:48:43;2.40;;;1.87;;
8580;SDS011;4328;48.622;9.230;2023-02-01T01:51:10;2.10;;;2.00;;
8580;SDS011;4328;48.622;9.230;2023-02-01T01:53:38;1.77;;;1.67;;
8580;SDS011;4328;48.622;9.230;2023-02-01T01:56:08;2.40;;;2.07;;
8580;SDS011;4328;48.622;9.230;2023-02-01T01:58:35;2.07;;;1.80;;
8580;SDS011;4328;48.622;9.230;2023-02-01T02:01:02;2.23;;;2.00;;
8580;SDS011;4328;48.622;9.230;2023-02-01T02:03:30;2.13;;;1.90;;
8580;SDS011;4328;48.622;9.230;2023-02-01T02:05:59;1.67;;;1.57;;
8580;SDS011;4328;48.622;9.230;2023-02-01T02:08:27;1.80;;;1.70;;
8580;SDS011;4328;48.622;9.230;2023-02-01T02:10:53;1.90;;;1.80;;
8580;SDS011;4328;48.622;9.230;2023-02-01T02:13:27;2.20;;;1.97;;
8580;SDS011;4328;48.622;9.230;2023-02-01T02:15:59;1.90;;;1.80;;
8580;SDS011;4328;48.622;9.230;2023-02-01T02:18:31;1.97;;;1.67;;
8580;SDS011;4328;48.622;9.230;2023-02-01T02:21:16;1.73;;;1.63;;
8580;SDS011;4328;48.622;9.230;2023-02-01T02:26:46;1.50;;;1.40;;
8580;SDS011;4328;48.622;9.230;2023-02-01T02:32:01;2.03;;;1.90;;
8580;SDS011;4328;48.622;9.230;2023-02-01T02:34:32;1.57;;;1.47;;
8580;SDS011;4328;48.622;9.230;2023-02-01T02:37:04;2.10;;;1.77;;
8580;SDS011;4328;48.622;9.230;2023-02-01T02:39:37;1.93;;;1.83;;
8580;SDS011;4328;48.622;9.230;2023-02-01T02:42:05;1.93;;;1.80;;
8580;SDS011;4328;48.622;9.230;2023-02-01T02:44:54;1.77;;;1.67;;
8580;SDS011;4328;48.622;9.230;2023-02-01T02:47:45;1.97;;;1.70;;
8580;SDS011;4328;48.622;9.230;2023-02-01T02:50:17;2.37;;;2.03;;
8580;SDS011;4328;48.622;9.230;2023-02-01T02:53:03;2.00;;;1.90;;
8580;SDS011;4328;48.622;9.230;2023-02-01T02:55:49;2.43;;;1.93;;
8580;SDS011;4328;48.622;9.230;2023-02-01T02:58:16;1.93;;;1.83;;
8580;SDS011;4328;48.622;9.230;2023-02-01T03:01:00;1.80;;;1.70;;
8580;SDS011;4328;48.622;9.230;2023-02-01T03:03:44;2.10;;;1.90;;
8580;SDS011;4328;48.622;9.230;2023-02-01T03:06:30;1.80;;;1.70;;
8580;SDS011;4328;48.622;9.230;2023-02-01T03:08:58;1.73;;;1.63;;
8580;SDS011;4328;48.622;9.230;2023-02-01T03:11:26;2.23;;;1.83;;
8580;SDS011;4328;48.622;9.230;2023-02-01T03:14:13;2.07;;;1.97;;
8580;SDS011;4328;48.622;9.230;2023-02-01T03:16:40;2.30;;;2.10;;
8580;SDS011;4328;48.622;9.230;2023-02-01T03:19:08;2.20;;;2.10;;
8580;SDS011;4328;48.622;9.230;2023-02-01T03:21:40;2.33;;;2.13;;
8580;SDS011;4328;48.622;9.230;2023-02-01T03:24:07;2.63;;;2.23;;
8580;SDS011;4328;48.622;9.230;2023-02-01T03:26:36;3.10;;;2.07;;
8580;SDS011;4328;48.622;9.230;2023-02-01T03:29:05;2.30;;;2.10;;
8580;SDS011;4328;48.622;9.230;2023-02-01T03:31:34;2.20;;;2.00;;
8580;SDS011;4328;48.622;9.230;2023-02-01T03:34:00;2.40;;;2.10;;
8580;SDS011;4328;48.622;9.230;2023-02-01T03:36:28;2.67;;;2.10;;
8580;SDS011;4328;48.622;9.230;2023-02-01T03:39:00;2.13;;;2.03;;
8580;SDS011;4328;48.622;9.230;2023-02-01T03:41:27;2.37;;;2.23;;
8580;SDS011;4328;48.622;9.230;2023-02-01T03:43:56;2.30;;;2.00;;
8580;SDS011;4328;48.622;9.230;2023-02-01T03:46:25;3.07;;;2.30;;
8580;SDS011;4328;48.622;9.230;2023-02-01T03:48:53;2.17;;;2.07;;
8580;SDS011;4328;48.622;9.230;2023-02-01T03:51:20;2.30;;;2.10;;
8580;SDS011;4328;48.622;9.230;2023-02-01T03:53:47;2.10;;;2.00;;
8580;SDS011;4328;48.622;9.230;2023-02-01T03:56:16;2.87;;;2.13;;
8580;SDS011;4328;48.622;9.230;2023-02-01T03:58:44;2.53;;;2.33;;
8580;SDS011;4328;48.622;9.230;2023-02-01T04:01:23;2.20;;;2.00;;
8580;SDS011;4328;48.622;9.230;2023-02-01T04:03:50;2.30;;;2.10;;
8580;SDS011;4328;48.622;9.230;2023-02-01T04:06:17;1.87;;;1.77;;
8580;SDS011;4328;48.622;9.230;2023-02-01T04:08:43;2.30;;;2.10;;
8580;SDS011;4328;48.622;9.230;2023-02-01T04:11:09;2.37;;;2.10;;
8580;SDS011;4328;48.622;9.230;2023-02-01T04:13:37;2.10;;;1.90;;
8580;SDS011;4328;48.622;9.230;2023-02-01T04:16:03;3.17;;;2.03;;
8580;SDS011;4328;48.622;9.230;2023-02-01T04:18:30;2.40;;;2.20;;
8580;SDS011;4328;48.622;9.230;2023-02-01T04:20:56;2.07;;;1.87;;
8580;SDS011;4328;48.622;9.230;2023-02-01T04:23:23;2.10;;;2.00;;
8580;SDS011;4328;48.622;9.230;2023-02-01T04:25:49;2.17;;;1.97;;
8580;SDS011;4328;48.622;9.230;2023-02-01T04:28:15;2.13;;;2.00;;
8580;SDS011;4328;48.622;9.230;2023-02-01T04:30:43;3.13;;;2.00;;
8580;SDS011;4328;48.622;9.230;2023-02-01T04:33:11;2.10;;;2.00;;
8580;SDS011;4328;48.622;9.230;2023-02-01T04:35:38;2.30;;;2.10;;
8580;SDS011;4328;48.622;9.230;2023-02-01T04:38:05;2.40;;;2.20;;
8580;SDS011;4328;48.622;9.230;2023-02-01T04:40:31;2.30;;;2.10;;
8580;SDS011;4328;48.622;9.230;2023-02-01T04:42:58;2.37;;;2.17;;
8580;SDS011;4328;48.622;9.230;2023-02-01T04:45:24;2.57;;;2.37;;
8580;SDS011;4328;48.622;9.230;2023-02-01T04:47:52;2.70;;;2.00;;
8580;SDS011;4328;48.622;9.230;2023-02-01T04:50:18;1.80;;;1.70;;
8580;SDS011;4328;48.622;9.230;2023-02-01T04:52:45;2.20;;;2.00;;
8580;SDS011;4328;48.622;9.230;2023-02-01T04:55:11;2.37;;;2.17;;
8580;SDS011;4328;48.622;9.230;2023-02-01T04:57:38;3.10;;;2.20;;
8580;SDS011;4328;48.622;9.230;2023-02-01T05:00:06;2.53;;;1.80;;
8580;SDS011;4328;48.622;9.230;2023-02-01T05:02:32;2.07;;;1.97;;
8580;SDS011;4328;48.622;9.230;2023-02-01T05:05:01;1.90;;;1.80;;
8580;SDS011;4328;48.622;9.230;2023-02-01T05:07:28;2.43;;;2.00;;
8580;SDS011;4328;48.622;9.230;2023-02-01T05:09:54;1.80;;;1.70;;
8580;SDS011;4328;48.622;9.230;2023-02-01T05:12:20;2.10;;;1.80;;
8580;SDS011;4328;48.622;9.230;2023-02-01T05:15:05;2.27;;;1.90;;
8580;SDS011;4328;48.622;9.230;2023-02-01T05:17:31;2.20;;;2.00;;
8580;SDS011;4328;48.622;9.230;2023-02-01T05:19:58;2.20;;;2.00;;
8580;SDS011;4328;48.622;9.230;2023-02-01T05:22:26;4.33;;;1.90;;
8580;SDS011;4328;48.622;9.230;2023-02-01T05:24:52;2.13;;;2.03;;
8580;SDS011;4328;48.622;9.230;2023-02-01T05:27:18;2.13;;;2.03;;
8580;SDS011;4328;48.622;9.230;2023-02-01T05:29:45;1.80;;;1.70;;
8580;SDS011;4328;48.622;9.230;2023-02-01T05:32:11;2.13;;;1.93;;
8580;SDS011;4328;48.622;9.230;2023-02-01T05:34:38;1.93;;;1.83;;
8580;SDS011;4328;48.622;9.230;2023-02-01T05:37:04;2.03;;;1.90;;
8580;SDS011;4328;48.622;9.230;2023-02-01T05:39:32;2.50;;;1.90;;
8580;SDS011;4328;48.622;9.230;2023-02-01T05:41:58;4.60;;;1.93;;
8580;SDS011;4328;48.622;9.230;2023-02-01T05:44:24;2.20;;;1.97;;
8580;SDS011;4328;48.622;9.230;2023-02-01T05:46:51;1.80;;;1.70;;
8580;SDS011;4328;48.622;9.230;2023-02-01T05:49:18;1.70;;;1.60;;
8580;SDS011;4328;48.622;9.230;2023-02-01T05:51:44;1.97;;;1.63;;
8580;SDS011;4328;48.622;9.230;2023-02-01T05:54:10;1.53;;;1.43;;
8580;SDS011;4328;48.622;9.230;2023-02-01T05:56:38;2.13;;;1.93;;
8580;SDS011;4328;48.622;9.230;2023-02-01T05:59:05;1.70;;;1.60;;
8580;SDS011;4328;48.622;9.230;2023-02-01T06:01:32;1.70;;;1.60;;
8580;SDS011;4328;48.622;9.230;2023-02-01T06:03:59;1.80;;;1.70;;
8580;SDS011;4328;48.622;9.230;2023-02-01T06:06:26;2.00;;;1.87;;
8580;SDS011;4328;48.622;9.230;2023-02-01T06:08:52;1.77;;;1.60;;
8580;SDS011;4328;48.622;9.230;2023-02-01T06:11:18;1.87;;;1.77;;
8580;SDS011;4328;48.622;9.230;2023-02-01T06:13:46;1.77;;;1.63;;
8580;SDS011;4328;48.622;9.230;2023-02-01T06:16:13;2.93;;;1.90;;
8580;SDS011;4328;48.622;9.230;2023-02-01T06:18:40;2.57;;;1.53;;
8580;SDS011;4328;48.622;9.230;2023-02-01T06:21:06;2.20;;;2.00;;
8580;SDS011;4328;48.622;9.230;2023-02-01T06:23:33;1.87;;;1.73;;
8580;SDS011;4328;48.622;9.230;2023-02-01T06:26:00;3.07;;;1.70;;
8580;SDS011;4328;48.622;9.230;2023-02-01T06:28:27;2.10;;;1.90;;
8580;SDS011;4328;48.622;9.230;2023-02-01T06:30:55;3.40;;;2.10;;
8580;SDS011;4328;48.622;9.230;2023-02-01T06:33:22;3.03;;;1.87;;
8580;SDS011;4328;48.622;9.230;2023-02-01T06:35:49;3.13;;;2.00;;
8580;SDS011;4328;48.622;9.230;2023-02-01T06:38:22;2.53;;;1.90;;
8580;SDS011;4328;48.622;9.230;2023-02-01T06:40:51;2.57;;;1.80;;
8580;SDS011;4328;48.622;9.230;2023-02-01T06:43:18;4.43;;;2.10;;
8580;SDS011;4328;48.622;9.230;2023-02-01T06:45:44;5.87;;;2.27;;
8580;SDS011;4328;48.622;9.230;2023-02-01T06:48:12;6.03;;;2.10;;
8580;SDS011;4328;48.622;9.230;2023-02-01T06:50:38;1.83;;;1.67;;
8580;SDS011;4328;48.622;9.230;2023-02-01T06:53:05;2.57;;;1.80;;
8580;SDS011;4328;48.622;9.230;2023-02-01T06:55:31;2.93;;;2.17;;
8580;SDS011;4328;48.622;9.230;2023-02-01T06:57:57;2.00;;;1.90;;
8580;SDS011;4328;48.622;9.230;2023-02-01T07:00:24;2.30;;;2.10;;
8580;SDS011;4328;48.622;9.230;2023-02-01T07:02:50;2.20;;;2.00;;
8580;SDS011;4328;48.622;9.230;2023-02-01T07:05:18;2.10;;;1.80;;
8580;SDS011;4328;48.622;9.230;2023-02-01T07:07:44;2.30;;;1.90;;
8580;SDS011;4328;48.622;9.230;2023-02-01T07:10:11;2.37;;;1.70;;
8580;SDS011;4328;48.622;9.230;2023-02-01T07:12:37;2.73;;;1.90;;
8580;SDS011;4328;48.622;9.230;2023-02-01T07:15:04;2.23;;;1.83;;
8580;SDS011;4328;48.622;9.230;2023-02-01T07:17:31;4.03;;;1.97;;
8580;SDS011;4328;48.622;9.230;2023-02-01T07:19:57;3.00;;;1.70;;
8580;SDS011;4328;48.622;9.230;2023-02-01T07:22:26;2.37;;;1.80;;
8580;SDS011;4328;48.622;9.230;2023-02-01T07:24:52;3.53;;;1.80;;
8580;SDS011;4328;48.622;9.230;2023-02-01T07:27:19;2.87;;;1.60;;
8580;SDS011;4328;48.622;9.230;2023-02-01T07:29:45;3.17;;;1.90;;
8580;SDS011;4328;48.622;9.230;2023-02-01T07:32:12;2.37;;;1.97;;
8580;SDS011;4328;48.622;9.230;2023-02-01T07:34:38;1.80;;;1.70;;
8580;SDS011;4328;48.622;9.230;2023-02-01T07:37:05;2.43;;;1.83;;
8580;SDS011;4328;48.622;9.230;2023-02-01T07:39:32;1.90;;;1.80;;
8580;SDS011;4328;48.622;9.230;2023-02-01T07:41:59;3.77;;;2.00;;
8580;SDS011;4328;48.622;9.230;2023-02-01T07:44:25;2.00;;;1.80;;
8580;SDS011;4328;48.622;9.230;2023-02-01T07:46:52;2.13;;;1.80;;
8580;SDS011;4328;48.622;9.230;2023-02-01T07:49:18;1.73;;;1.63;;
8580;SDS011;4328;48.622;9.230;2023-02-01T07:51:44;2.23;;;2.03;;
8580;SDS011;4328;48.622;9.230;2023-02-01T07:54:11;2.90;;;2.10;;
8580;SDS011;4328;48.622;9.230;2023-02-01T07:56:38;2.63;;;2.00;;
8580;SDS011;4328;48.622;9.230;2023-02-01T07:59:05;2.07;;;1.97;;
8580;SDS011;4328;48.622;9.230;2023-02-01T08:01:32;1.90;;;1.80;;
8580;SDS011;4328;48.622;9.230;2023-02-01T08:03:57;3.03;;;2.50;;
8580;SDS011;4328;48.622;9.230;2023-02-01T08:06:25;6.10;;;3.80;;
8580;SDS011;4328;48.622;9.230;2023-02-01T08:08:52;2.93;;;2.07;;
8580;SDS011;4328;48.622;9.230;2023-02-01T08:11:19;2.93;;;2.60;;
8580;SDS011;4328;48.622;9.230;2023-02-01T08:13:47;3.97;;;1.90;;
8580;SDS011;4328;48.622;9.230;2023-02-01T08:16:15;2.20;;;2.00;;
8580;SDS011;4328;48.622;9.230;2023-02-01T08:18:42;1.83;;;1.70;;
8580;SDS011;4328;48.622;9.230;2023-02-01T08:21:10;1.60;;;1.50;;
8580;SDS011;4328;48.622;9.230;2023-02-01T08:23:37;2.57;;;1.87;;
8580;SDS011;4328;48.622;9.230;2023-02-01T08:26:05;4.00;;;1.70;;
8580;SDS011;4328;48.622;9.230;2023-02-01T08:28:32;2.83;;;1.80;;
8580;SDS011;4328;48.622;9.230;2023-02-01T08:31:02;1.83;;;1.73;;
8580;SDS011;4328;48.622;9.230;2023-02-01T08:33:29;1.67;;;1.53;;
8580;SDS011;4328;48.622;9.230;2023-02-01T08:35:55;2.00;;;1.90;;
8580;SDS011;4328;48.622;9.230;2023-02-01T08:38:22;2.90;;;1.80;;
8580;SDS011;4328;48.622;9.230;2023-02-01T08:40:48;2.57;;;1.90;;
8580;SDS011;4328;48.622;9.230;2023-02-01T08:43:14;2.87;;;1.90;;
8580;SDS011;4328;48.622;9.230;2023-02-01T08:45:41;2.27;;;1.83;;
8580;SDS011;4328;48.622;9.230;2023-02-01T08:48:09;3.07;;;1.90;;
8580;SDS011;4328;48.622;9.230;2023-02-01T08:50:35;2.17;;;1.97;;
8580;SDS011;4328;48.622;9.230;2023-02-01T08:53:01;4.67;;;3.33;;
8580;SDS011;4328;48.622;9.230;2023-02-01T08:55:28;2.27;;;2.07;;
8580;SDS011;4328;48.622;9.230;2023-02-01T08:57:54;2.10;;;2.00;;
8580;SDS011;4328;48.622;9.230;2023-02-01T09:00:21;2.60;;;1.90;;
8580;SDS011;4328;48.622;9.230;2023-02-01T09:02:48;2.23;;;1.77;;
8580;SDS011;4328;48.622;9.230;2023-02-01T09:05:16;1.47;;;1.37;;
8580;SDS011;4328;48.622;9.230;2023-02-01T09:07:44;1.90;;;1.70;;
8580;SDS011;4328;48.622;9.230;2023-02-01T09:10:10;1.53;;;1.43;;
8580;SDS011;4328;48.622;9.230;2023-02-01T09:12:37;2.50;;;1.77;;
8580;SDS011;4328;48.622;9.230;2023-02-01T09:15:04;1.67;;;1.47;;
8580;SDS011;4328;48.622;9.230;2023-02-01T09:17:32;1.40;;;1.30;;
8580;SDS011;4328;48.622;9.230;2023-02-01T09:19:58;2.67;;;1.70;;
8580;SDS011;4328;48.622;9.230;2023-02-01T09:22:26;2.80;;;1.60;;
8580;SDS011;4328;48.622;9.230;2023-02-01T09:24:52;1.73;;;1.63;;
8580;SDS011;4328;48.622;9.230;2023-02-01T09:27:19;1.60;;;1.50;;
8580;SDS011;4328;48.622;9.230;2023-02-01T09:29:45;2.37;;;1.90;;
8580;SDS011;4328;48.622;9.230;2023-02-01T09:32:14;2.17;;;1.83;;
8580;SDS011;4328;48.622;9.230;2023-02-01T09:34:41;2.13;;;1.80;;
8580;SDS011;4328;48.622;9.230;2023-02-01T09:37:08;4.40;;;1.90;;
8580;SDS011;4328;48.622;9.230;2023-02-01T09:39:35;2.60;;;2.00;;
8580;SDS011;4328;48.622;9.230;2023-02-01T09:42:07;2.47;;;1.57;;
8580;SDS011;4328;48.622;9.230;2023-02-01T09:44:45;1.83;;;1.47;;
8580;SDS011;4328;48.622;9.230;2023-02-01T09:47:16;2.97;;;1.73;;
8580;SDS011;4328;48.622;9.230;2023-02-01T09:49:45;1.73;;;1.60;;
8580;SDS011;4328;48.622;9.230;2023-02-01T09:52:15;2.87;;;1.80;;
8580;SDS011;4328;48.622;9.230;2023-02-01T09:54:47;3.63;;;1.80;;
8580;SDS011;4328;48.622;9.230;2023-02-01T09:57:16;4.57;;;1.90;;
8580;SDS011;4328;48.622;9.230;2023-02-01T09:59:46;2.77;;;1.80;;
8580;SDS011;4328;48.622;9.230;2023-02-01T10:02:15;4.33;;;2.07;;
8580;SDS011;4328;48.622;9.230;2023-02-01T10:04:42;2.30;;;1.77;;
8580;SDS011;4328;48.622;9.230;2023-02-01T10:07:18;2.43;;;1.73;;
8580;SDS011;4328;48.622;9.230;2023-02-01T10:09:52;2.57;;;2.03;;
8580;SDS011;4328;48.622;9.230;2023-02-01T10:12:29;2.50;;;1.70;;
8580;SDS011;4328;48.622;9.230;2023-02-01T10:14:59;2.33;;;1.93;;
8580;SDS011;4328;48.622;9.230;2023-02-01T10:17:31;4.33;;;2.17;;
8580;SDS011;4328;48.622;9.230;2023-02-01T10:20:04;5.67;;;2.00;;
8580;SDS011;4328;48.622;9.230;2023-02-01T10:22:36;3.40;;;1.93;;
8580;SDS011;4328;48.622;9.230;2023-02-01T10:25:07;1.87;;;1.67;;
8580;SDS011;4328;48.622;9.230;2023-02-01T10:27:37;2.60;;;1.60;;
8580;SDS011;4328;48.622;9.230;2023-02-01T10:30:06;1.73;;;1.57;;
8580;SDS011;4328;48.622;9.230;2023-02-01T10:32:40;2.60;;;2.20;;
8580;SDS011;4328;48.622;9.230;2023-02-01T10:35:08;3.27;;;1.67;;
8580;SDS011;4328;48.622;9.230;2023-02-01T10:37:36;3.57;;;2.10;;
8580;SDS011;4328;48.622;9.230;2023-02-01T10:40:11;2.77;;;1.57;;
8580;SDS011;4328;48.622;9.230;2023-02-01T10:42:38;3.40;;;1.57;;
8580;SDS011;4328;48.622;9.230;2023-02-01T10:45:06;3.20;;;1.70;;
8580;SDS011;4328;48.622;9.230;2023-02-01T10:47:32;6.83;;;2.13;;
8580;SDS011;4328;48.622;9.230;2023-02-01T10:50:02;5.33;;;2.10;;
8580;SDS011;4328;48.622;9.230;2023-02-01T10:52:33;2.57;;;1.90;;
8580;SDS011;4328;48.622;9.230;2023-02-01T10:57:55;3.17;;;2.50;;
8580;SDS011;4328;48.622;9.230;2023-02-01T11:00:21;5.77;;;1.90;;
8580;SDS011;4328;48.622;9.230;2023-02-01T11:02:48;4.50;;;1.70;;
8580;SDS011;4328;48.622;9.230;2023-02-01T11:05:16;4.10;;;2.10;;
8580;SDS011;4328;48.622;9.230;2023-02-01T11:07:46;5.57;;;1.90;;
8580;SDS011;4328;48.622;9.230;2023-02-01T11:10:33;4.67;;;1.97;;
8580;SDS011;4328;48.622;9.230;2023-02-01T11:13:02;3.63;;;2.30;;
8580;SDS011;4328;48.622;9.230;2023-02-01T11:15:29;4.17;;;2.20;;
8580;SDS011;4328;48.622;9.230;2023-02-01T11:17:55;4.30;;;2.00;;
8580;SDS011;4328;48.622;9.230;2023-02-01T11:20:29;4.77;;;1.93;;
8580;SDS011;4328;48.622;9.230;2023-02-01T11:23:01;5.73;;;1.90;;
8580;SDS011;4328;48.622;9.230;2023-02-01T11:25:27;6.63;;;2.30;;
8580;SDS011;4328;48.622;9.230;2023-02-01T11:27:54;6.57;;;1.80;;
8580;SDS011;4328;48.622;9.230;2023-02-01T11:30:26;6.50;;;2.23;;
8580;SDS011;4328;48.622;9.230;2023-02-01T11:32:53;4.70;;;1.70;;
8580;SDS011;4328;48.622;9.230;2023-02-01T11:35:20;4.07;;;1.50;;
8580;SDS011;4328;48.622;9.230;2023-02-01T11:37:48;5.67;;;2.00;;
8580;SDS011;4328;48.622;9.230;2023-02-01T11:40:23;5.00;;;2.13;;
8580;SDS011;4328;48.622;9.230;2023-02-01T11:42:55;5.33;;;1.90;;
8580;SDS011;4328;48.622;9.230;2023-02-01T11:45:26;5.27;;;1.97;;
8580;SDS011;4328;48.622;9.230;2023-02-01T11:47:52;3.77;;;1.73;;
8580;SDS011;4328;48.622;9.230;2023-02-01T11:50:22;4.13;;;1.90;;
8580;SDS011;4328;48.622;9.230;2023-02-01T11:52:55;5.07;;;1.90;;
8580;SDS011;4328;48.622;9.230;2023-02-01T11:55:29;3.60;;;1.60;;
8580;SDS011;4328;48.622;9.230;2023-02-01T11:58:00;3.77;;;1.70;;
8580;SDS011;4328;48.622;9.230;2023-02-01T12:00:35;2.97;;;1.77;;
8580;SDS011;4328;48.622;9.230;2023-02-01T12:05:52;5.10;;;1.70;;
8580;SDS011;4328;48.622;9.230;2023-02-01T12:08:25;5.17;;;1.80;;
8580;SDS011;4328;48.622;9.230;2023-02-01T12:10:58;5.97;;;1.93;;
8580;SDS011;4328;48.622;9.230;2023-02-01T12:13:31;4.07;;;1.70;;
8580;SDS011;4328;48.622;9.230;2023-02-01T12:16:06;3.47;;;2.33;;
8580;SDS011;4328;48.622;9.230;2023-02-01T12:18:41;5.07;;;2.13;;
8580;SDS011;4328;48.622;9.230;2023-02-01T12:21:18;6.53;;;1.97;;
8580;SDS011;4328;48.622;9.230;2023-02-01T12:23:54;4.13;;;1.60;;
8580;SDS011;4328;48.622;9.230;2023-02-01T12:26:31;8.40;;;2.40;;
8580;SDS011;4328;48.622;9.230;2023-02-01T12:29:07;4.87;;;2.03;;
8580;SDS011;4328;48.622;9.230;2023-02-01T12:31:41;3.57;;;2.17;;
8580;SDS011;4328;48.622;9.230;2023-02-01T12:34:20;4.20;;;1.77;;
8580;SDS011;4328;48.622;9.230;2023-02-01T12:36:50;5.30;;;1.70;;
8580;SDS011;4328;48.622;9.230;2023-02-01T12:39:22;7.17;;;1.90;;
8580;SDS011;4328;48.622;9.230;2023-02-01T12:41:51;6.97;;;2.47;;
8580;SDS011;4328;48.622;9.230;2023-02-01T12:47:05;4.03;;;1.50;;
8580;SDS011;4328;48.622;9.230;2023-02-01T12:49:35;5.60;;;1.73;;
8580;SDS011;4328;48.622;9.230;2023-02-01T12:52:04;5.33;;;1.43;;
8580;SDS011;4328;48.622;9.230;2023-02-01T12:54:34;3.23;;;1.77;;
8580;SDS011;4328;48.622;9.230;2023-02-01T12:57:02;7.40;;;1.70;;
8580;SDS011;4328;48.622;9.230;2023-02-01T12:59:31;3.53;;;1.57;;
8580;SDS011;4328;48.622;9.230;2023-02-01T13:02:01;4.37;;;2.03;;
8580;SDS011;4328;48.622;9.230;2023-02-01T13:04:33;6.70;;;2.27;;
8580;SDS011;4328;48.622;9.230;2023-02-01T13:07:03;4.93;;;1.60;;
8580;SDS011;4328;48.622;9.230;2023-02-01T13:09:31;6.00;;;2.00;;
8580;SDS011;4328;48.622;9.230;2023-02-01T13:12:10;7.00;;;1.77;;
8580;SDS011;4328;48.622;9.230;2023-02-01T13:14:38;3.77;;;1.70;;
8580;SDS011;4328;48.622;9.230;2023-02-01T13:17:09;4.53;;;1.67;;
8580;SDS011;4328;48.622;9.230;2023-02-01T13:19:40;4.80;;;1.83;;
8580;SDS011;4328;48.622;9.230;2023-02-01T13:22:09;7.63;;;1.90;;
8580;SDS011;4328;48.622;9.230;2023-02-01T13:24:37;9.63;;;2.27;;
8580;SDS011;4328;48.622;9.230;2023-02-01T13:27:05;7.80;;;2.00;;
8580;SDS011;4328;48.622;9.230;2023-02-01T13:29:31;6.27;;;1.80;;
8580;SDS011;4328;48.622;9.230;2023-02-01T13:37:55;2.60;;;1.73;;
8580;SDS011;4328;48.622;9.230;2023-02-01T13:40:31;6.10;;;2.00;;
8580;SDS011;4328;48.622;9.230;2023-02-01T13:43:02;6.10;;;2.27;;
8580;SDS011;4328;48.622;9.230;2023-02-01T13:45:31;4.83;;;1.90;;
8580;SDS011;4328;48.622;9.230;2023-02-01T13:47:59;6.73;;;2.20;;
8580;SDS011;4328;48.622;9.230;2023-02-01T13:50:27;5.30;;;1.60;;
8580;SDS011;4328;48.622;9.230;2023-02-01T13:52:55;5.23;;;2.03;;
8580;SDS011;4328;48.622;9.230;2023-02-01T13:55:27;3.07;;;1.50;;
8580;SDS011;4328;48.622;9.230;2023-02-01T13:58:00;6.97;;;1.83;;
8580;SDS011;4328;48.622;9.230;2023-02-01T14:00:28;9.50;;;3.83;;
8580;SDS011;4328;48.622;9.230;2023-02-01T14:03:01;13.10;;;4.70;;
8580;SDS011;4328;48.622;9.230;2023-02-01T14:08:21;5.50;;;3.00;;
8580;SDS011;4328;48.622;9.230;2023-02-01T14:10:48;5.17;;;2.33;;
8580;SDS011;4328;48.622;9.230;2023-02-01T14:13:22;4.00;;;1.70;;
8580;SDS011;4328;48.622;9.230;2023-02-01T14:16:10;3.70;;;1.60;;
8580;SDS011;4328;48.622;9.230;2023-02-01T14:18:54;6.03;;;1.97;;
8580;SDS011;4328;48.622;9.230;2023-02-01T14:21:24;6.97;;;2.20;;
8580;SDS011;4328;48.622;9.230;2023-02-01T14:23:56;6.47;;;1.83;;
8580;SDS011;4328;48.622;9.230;2023-02-01T14:26:23;6.40;;;1.83;;
8580;SDS011;4328;48.622;9.230;2023-02-01T14:28:52;4.43;;;1.90;;
8580;SDS011;4328;48.622;9.230;2023-02-01T14:31:31;8.70;;;2.23;;
8580;SDS011;4328;48.622;9.230;2023-02-01T14:33:59;3.37;;;2.20;;
8580;SDS011;4328;48.622;9.230;2023-02-01T14:36:26;7.27;;;2.10;;
8580;SDS011;4328;48.622;9.230;2023-02-01T14:38:52;4.97;;;2.27;;
8580;SDS011;4328;48.622;9.230;2023-02-01T14:41:32;6.00;;;2.33;;
8580;SDS011;4328;48.622;9.230;2023-02-01T14:44:22;6.17;;;2.20;;
8580;SDS011;4328;48.622;9.230;2023-02-01T14:49:34;3.93;;;1.87;;
8580;SDS011;4328;48.622;9.230;2023-02-01T14:52:02;4.47;;;2.00;;
8580;SDS011;4328;48.622;9.230;2023-02-01T14:54:31;9.20;;;2.43;;
8580;SDS011;4328;48.622;9.230;2023-02-01T14:56:59;5.30;;;2.13;;
8580;SDS011;4328;48.622;9.230;2023-02-01T14:59:25;5.43;;;2.33;;
8580;SDS011;4328;48.622;9.230;2023-02-01T15:01:58;6.93;;;2.30;;
8580;SDS011;4328;48.622;9.230;2023-02-01T15:04:25;6.33;;;1.97;;
8580;SDS011;4328;48.622;9.230;2023-02-01T15:06:52;5.87;;;2.00;;
8580;SDS011;4328;48.622;9.230;2023-02-01T15:09:21;4.80;;;2.10;;
8580;SDS011;4328;48.622;9.230;2023-02-01T15:11:54;5.33;;;1.87;;
8580;SDS011;4328;48.622;9.230;2023-02-01T15:14:23;2.90;;;1.77;;
8580;SDS011;4328;48.622;9.230;2023-02-01T15:16:49;4.90;;;2.40;;
8580;SDS011;4328;48.622;9.230;2023-02-01T15:19:19;5.90;;;2.10;;
8580;SDS011;4328;48.622;9.230;2023-02-01T15:21:47;5.63;;;2.17;;
8580;SDS011;4328;48.622;9.230;2023-02-01T15:24:14;4.53;;;2.33;;
8580;SDS011;4328;48.622;9.230;2023-02-01T15:26:41;6.30;;;2.17;;
8580;SDS011;4328;48.622;9.230;2023-02-01T15:29:10;6.20;;;2.37;;
8580;SDS011;4328;48.622;9.230;2023-02-01T15:31:39;3.90;;;2.20;;
8580;SDS011;4328;48.622;9.230;2023-02-01T15:34:05;4.97;;;2.10;;
8580;SDS011;4328;48.622;9.230;2023-02-01T15:36:32;5.07;;;1.93;;
8580;SDS011;4328;48.622;9.230;2023-02-01T15:39:12;4.90;;;1.90;;
8580;SDS011;4328;48.622;9.230;2023-02-01T15:41:39;8.50;;;2.17;;
8580;SDS011;4328;48.622;9.230;2023-02-01T15:44:10;4.60;;;2.13;;
8580;SDS011;4328;48.622;9.230;2023-02-01T15:46:42;5.47;;;1.97;;
8580;SDS011;4328;48.622;9.230;2023-02-01T15:49:16;4.20;;;1.60;;
8580;SDS011;4328;48.622;9.230;2023-02-01T15:51:44;9.07;;;2.50;;